sensor_id;sensor_type;location;lat;lon;timestamp;temperature;humidity
19088;DHT22;9676;50.916;13.352;2023-07-13T00:02:47;25.70;40.30
19088;DHT22;9676;50.916;13.352;2023-07-13T00:05:36;25.60;40.10
19088;DHT22;9676;50.916;13.352;2023-07-13T00:08:26;25.70;40.40
19088;DHT22;9676;50.916;13.352;2023-07-13T00:11:17;25.70;40.70
19088;DHT22;9676;50.916;13.352;2023-07-13T00:14:06;25.70;41.00
19088;DHT22;9676;50.916;13.352;2023-07-13T00:16:58;25.70;41.30
19088;DHT22;9676;50.916;13.352;2023-07-13T00:19:48;25.70;41.30
19088;DHT22;9676;50.916;13.352;2023-07-13T00:22:37;25.70;41.30
19088;DHT22;9676;50.916;13.352;2023-07-13T00:25:27;25.60;41.50
19088;DHT22;9676;50.916;13.352;2023-07-13T00:28:16;25.60;41.70
19088;DHT22;9676;50.916;13.352;2023-07-13T00:31:06;25.50;41.70
19088;DHT22;9676;50.916;13.352;2023-07-13T00:33:57;25.50;42.10
19088;DHT22;9676;50.916;13.352;2023-07-13T00:36:48;25.30;42.50
19088;DHT22;9676;50.916;13.352;2023-07-13T00:39:37;25.20;42.80
19088;DHT22;9676;50.916;13.352;2023-07-13T00:42:27;25.00;44.50
19088;DHT22;9676;50.916;13.352;2023-07-13T00:49:02;24.30;45.90
19088;DHT22;9676;50.916;13.352;2023-07-13T00:51:57;23.90;45.50
19088;DHT22;9676;50.916;13.352;2023-07-13T00:54:49;23.60;45.50
19088;DHT22;9676;50.916;13.352;2023-07-13T00:57:40;23.20;45.50
19088;DHT22;9676;50.916;13.352;2023-07-13T01:00:30;23.00;45.70
19088;DHT22;9676;50.916;13.352;2023-07-13T01:03:20;22.80;46.30
19088;DHT22;9676;50.916;13.352;2023-07-13T01:06:11;22.60;46.30
19088;DHT22;9676;50.916;13.352;2023-07-13T01:09:02;22.50;46.50
19088;DHT22;9676;50.916;13.352;2023-07-13T01:11:51;22.40;46.80
19088;DHT22;9676;50.916;13.352;2023-07-13T01:14:41;22.30;46.60
19088;DHT22;9676;50.916;13.352;2023-07-13T01:17:31;22.30;46.90
19088;DHT22;9676;50.916;13.352;2023-07-13T01:20:22;22.30;47.00
19088;DHT22;9676;50.916;13.352;2023-07-13T01:23:14;22.30;46.90
19088;DHT22;9676;50.916;13.352;2023-07-13T01:26:03;22.30;47.00
19088;DHT22;9676;50.916;13.352;2023-07-13T01:28:52;22.20;47.60
19088;DHT22;9676;50.916;13.352;2023-07-13T01:31:44;22.30;47.10
19088;DHT22;9676;50.916;13.352;2023-07-13T01:34:34;22.30;47.00
19088;DHT22;9676;50.916;13.352;2023-07-13T01:37:26;22.30;47.10
19088;DHT22;9676;50.916;13.352;2023-07-13T01:40:17;22.30;47.20
19088;DHT22;9676;50.916;13.352;2023-07-13T01:43:06;22.30;47.30
19088;DHT22;9676;50.916;13.352;2023-07-13T01:45:56;22.30;47.20
19088;DHT22;9676;50.916;13.352;2023-07-13T01:49:05;22.30;47.20
19088;DHT22;9676;50.916;13.352;2023-07-13T01:51:55;22.30;47.20
19088;DHT22;9676;50.916;13.352;2023-07-13T01:54:44;22.30;47.20
19088;DHT22;9676;50.916;13.352;2023-07-13T01:57:35;22.30;47.30
19088;DHT22;9676;50.916;13.352;2023-07-13T02:00:24;22.30;47.30
19088;DHT22;9676;50.916;13.352;2023-07-13T02:03:15;22.30;47.40
19088;DHT22;9676;50.916;13.352;2023-07-13T02:06:06;22.30;47.40
19088;DHT22;9676;50.916;13.352;2023-07-13T02:08:56;22.30;47.60
19088;DHT22;9676;50.916;13.352;2023-07-13T02:11:46;22.30;47.70
19088;DHT22;9676;50.916;13.352;2023-07-13T02:14:37;22.30;47.60
19088;DHT22;9676;50.916;13.352;2023-07-13T02:17:27;22.30;47.80
19088;DHT22;9676;50.916;13.352;2023-07-13T02:20:16;22.40;47.90
19088;DHT22;9676;50.916;13.352;2023-07-13T02:23:06;22.40;48.00
19088;DHT22;9676;50.916;13.352;2023-07-13T02:25:57;22.40;48.10
19088;DHT22;9676;50.916;13.352;2023-07-13T02:28:48;22.40;48.20
19088;DHT22;9676;50.916;13.352;2023-07-13T02:31:41;22.50;48.30
19088;DHT22;9676;50.916;13.352;2023-07-13T02:34:31;22.50;48.20
19088;DHT22;9676;50.916;13.352;2023-07-13T02:37:20;22.50;48.20
19088;DHT22;9676;50.916;13.352;2023-07-13T02:40:10;22.50;48.20
19088;DHT22;9676;50.916;13.352;2023-07-13T02:43:00;22.60;48.30
19088;DHT22;9676;50.916;13.352;2023-07-13T02:45:52;22.70;49.10
19088;DHT22;9676;50.916;13.352;2023-07-13T02:48:42;22.60;48.40
19088;DHT22;9676;50.916;13.352;2023-07-13T02:51:34;22.70;48.50
19088;DHT22;9676;50.916;13.352;2023-07-13T02:54:23;22.70;48.50
19088;DHT22;9676;50.916;13.352;2023-07-13T02:57:13;22.70;48.50
19088;DHT22;9676;50.916;13.352;2023-07-13T03:00:03;22.70;48.50
19088;DHT22;9676;50.916;13.352;2023-07-13T03:02:54;22.70;48.60
19088;DHT22;9676;50.916;13.352;2023-07-13T03:05:47;22.70;48.50
19088;DHT22;9676;50.916;13.352;2023-07-13T03:08:42;22.70;48.60
19088;DHT22;9676;50.916;13.352;2023-07-13T03:11:32;22.70;48.70
19088;DHT22;9676;50.916;13.352;2023-07-13T03:14:31;22.70;48.60
19088;DHT22;9676;50.916;13.352;2023-07-13T03:17:24;22.70;48.60
19088;DHT22;9676;50.916;13.352;2023-07-13T03:20:14;22.70;48.50
19088;DHT22;9676;50.916;13.352;2023-07-13T03:23:04;22.70;48.60
19088;DHT22;9676;50.916;13.352;2023-07-13T03:26:01;22.60;48.60
19088;DHT22;9676;50.916;13.352;2023-07-13T03:28:52;22.60;48.80
19088;DHT22;9676;50.916;13.352;2023-07-13T03:31:44;22.60;48.70
19088;DHT22;9676;50.916;13.352;2023-07-13T03:34:34;22.60;48.80
19088;DHT22;9676;50.916;13.352;2023-07-13T03:37:23;22.70;49.00
19088;DHT22;9676;50.916;13.352;2023-07-13T03:40:14;22.60;49.00
19088;DHT22;9676;50.916;13.352;2023-07-13T03:43:06;22.70;49.10
19088;DHT22;9676;50.916;13.352;2023-07-13T03:45:56;22.70;49.10
19088;DHT22;9676;50.916;13.352;2023-07-13T03:48:47;22.70;49.10
19088;DHT22;9676;50.916;13.352;2023-07-13T03:51:37;22.70;49.20
19088;DHT22;9676;50.916;13.352;2023-07-13T03:54:27;22.70;49.20
19088;DHT22;9676;50.916;13.352;2023-07-13T03:57:18;22.70;49.20
19088;DHT22;9676;50.916;13.352;2023-07-13T04:00:08;22.80;49.40
19088;DHT22;9676;50.916;13.352;2023-07-13T04:03:04;22.80;49.50
19088;DHT22;9676;50.916;13.352;2023-07-13T04:05:54;22.80;49.50
19088;DHT22;9676;50.916;13.352;2023-07-13T04:08:48;22.80;49.60
19088;DHT22;9676;50.916;13.352;2023-07-13T04:11:39;22.90;49.70
19088;DHT22;9676;50.916;13.352;2023-07-13T04:14:30;22.90;49.80
19088;DHT22;9676;50.916;13.352;2023-07-13T04:17:19;23.00;50.00
19088;DHT22;9676;50.916;13.352;2023-07-13T04:20:09;23.10;50.20
19088;DHT22;9676;50.916;13.352;2023-07-13T04:22:59;23.20;50.30
19088;DHT22;9676;50.916;13.352;2023-07-13T04:25:50;23.30;50.30
19088;DHT22;9676;50.916;13.352;2023-07-13T04:28:41;23.40;50.40
19088;DHT22;9676;50.916;13.352;2023-07-13T04:31:32;23.60;50.40
19088;DHT22;9676;50.916;13.352;2023-07-13T04:34:22;23.70;50.50
19088;DHT22;9676;50.916;13.352;2023-07-13T04:37:12;23.80;50.60
19088;DHT22;9676;50.916;13.352;2023-07-13T04:40:01;24.00;50.50
19088;DHT22;9676;50.916;13.352;2023-07-13T04:42:51;24.20;50.40
19088;DHT22;9676;50.916;13.352;2023-07-13T04:45:41;24.30;50.40
19088;DHT22;9676;50.916;13.352;2023-07-13T04:48:32;24.50;50.50
19088;DHT22;9676;50.916;13.352;2023-07-13T04:51:22;24.70;50.70
19088;DHT22;9676;50.916;13.352;2023-07-13T04:54:11;25.00;50.80
19088;DHT22;9676;50.916;13.352;2023-07-13T04:57:01;25.20;50.60
19088;DHT22;9676;50.916;13.352;2023-07-13T04:59:50;25.50;50.30
19088;DHT22;9676;50.916;13.352;2023-07-13T05:02:40;25.70;50.00
19088;DHT22;9676;50.916;13.352;2023-07-13T05:05:31;25.90;49.70
19088;DHT22;9676;50.916;13.352;2023-07-13T05:08:20;26.00;49.30
19088;DHT22;9676;50.916;13.352;2023-07-13T05:11:09;26.00;49.00
19088;DHT22;9676;50.916;13.352;2023-07-13T05:13:59;26.00;49.50
19088;DHT22;9676;50.916;13.352;2023-07-13T05:16:49;26.10;49.10
19088;DHT22;9676;50.916;13.352;2023-07-13T05:19:39;26.20;49.60
19088;DHT22;9676;50.916;13.352;2023-07-13T05:22:29;26.50;50.00
19088;DHT22;9676;50.916;13.352;2023-07-13T05:25:19;26.90;50.60
19088;DHT22;9676;50.916;13.352;2023-07-13T05:28:08;27.40;50.90
19088;DHT22;9676;50.916;13.352;2023-07-13T05:30:58;27.90;50.70
19088;DHT22;9676;50.916;13.352;2023-07-13T05:33:48;28.50;50.60
19088;DHT22;9676;50.916;13.352;2023-07-13T05:36:37;29.00;50.60
19088;DHT22;9676;50.916;13.352;2023-07-13T05:39:28;29.40;49.00
19088;DHT22;9676;50.916;13.352;2023-07-13T05:42:17;29.70;48.40
19088;DHT22;9676;50.916;13.352;2023-07-13T05:45:08;29.90;48.20
19088;DHT22;9676;50.916;13.352;2023-07-13T05:47:57;30.30;48.40
19088;DHT22;9676;50.916;13.352;2023-07-13T05:50:47;30.60;48.20
19088;DHT22;9676;50.916;13.352;2023-07-13T05:53:37;30.90;47.70
19088;DHT22;9676;50.916;13.352;2023-07-13T05:56:28;31.20;47.20
19088;DHT22;9676;50.916;13.352;2023-07-13T05:59:18;31.40;46.30
19088;DHT22;9676;50.916;13.352;2023-07-13T06:02:08;31.50;46.10
19088;DHT22;9676;50.916;13.352;2023-07-13T06:04:58;31.80;46.60
19088;DHT22;9676;50.916;13.352;2023-07-13T06:07:48;32.20;47.00
19088;DHT22;9676;50.916;13.352;2023-07-13T06:10:37;32.80;47.10
19088;DHT22;9676;50.916;13.352;2023-07-13T06:13:28;33.50;47.00
19088;DHT22;9676;50.916;13.352;2023-07-13T06:16:17;34.20;46.60
19088;DHT22;9676;50.916;13.352;2023-07-13T06:19:07;34.80;45.80
19088;DHT22;9676;50.916;13.352;2023-07-13T06:21:56;35.20;44.60
19088;DHT22;9676;50.916;13.352;2023-07-13T06:24:47;35.30;43.30
19088;DHT22;9676;50.916;13.352;2023-07-13T06:27:36;35.30;42.50
19088;DHT22;9676;50.916;13.352;2023-07-13T06:30:27;35.40;42.50
19088;DHT22;9676;50.916;13.352;2023-07-13T06:33:16;35.30;42.10
19088;DHT22;9676;50.916;13.352;2023-07-13T06:36:07;35.30;41.80
19088;DHT22;9676;50.916;13.352;2023-07-13T06:38:57;35.20;41.40
19088;DHT22;9676;50.916;13.352;2023-07-13T06:41:46;35.10;41.50
19088;DHT22;9676;50.916;13.352;2023-07-13T06:44:38;34.90;41.60
19088;DHT22;9676;50.916;13.352;2023-07-13T06:47:29;34.90;41.50
19088;DHT22;9676;50.916;13.352;2023-07-13T06:50:21;34.90;41.40
19088;DHT22;9676;50.916;13.352;2023-07-13T06:53:11;34.80;41.20
19088;DHT22;9676;50.916;13.352;2023-07-13T06:56:01;34.60;41.00
19088;DHT22;9676;50.916;13.352;2023-07-13T06:58:50;34.50;41.10
19088;DHT22;9676;50.916;13.352;2023-07-13T07:01:40;34.40;41.00
19088;DHT22;9676;50.916;13.352;2023-07-13T07:04:30;34.40;40.90
19088;DHT22;9676;50.916;13.352;2023-07-13T07:07:23;34.30;40.70
19088;DHT22;9676;50.916;13.352;2023-07-13T07:10:13;34.40;41.20
19088;DHT22;9676;50.916;13.352;2023-07-13T07:13:02;34.50;41.40
19088;DHT22;9676;50.916;13.352;2023-07-13T07:15:52;34.60;41.60
19088;DHT22;9676;50.916;13.352;2023-07-13T07:18:42;34.80;41.10
19088;DHT22;9676;50.916;13.352;2023-07-13T07:21:32;35.00;40.70
19088;DHT22;9676;50.916;13.352;2023-07-13T07:24:22;35.30;41.10
19088;DHT22;9676;50.916;13.352;2023-07-13T07:27:11;35.80;41.90
19088;DHT22;9676;50.916;13.352;2023-07-13T07:30:04;36.40;41.90
19088;DHT22;9676;50.916;13.352;2023-07-13T07:32:57;37.00;41.20
19088;DHT22;9676;50.916;13.352;2023-07-13T07:35:51;37.50;40.30
19088;DHT22;9676;50.916;13.352;2023-07-13T07:38:45;37.80;39.50
19088;DHT22;9676;50.916;13.352;2023-07-13T07:41:34;38.20;39.30
19088;DHT22;9676;50.916;13.352;2023-07-13T07:44:26;38.50;39.10
19088;DHT22;9676;50.916;13.352;2023-07-13T07:47:16;38.70;38.80
19088;DHT22;9676;50.916;13.352;2023-07-13T07:50:06;39.00;38.70
19088;DHT22;9676;50.916;13.352;2023-07-13T07:52:56;39.40;38.70
19088;DHT22;9676;50.916;13.352;2023-07-13T07:55:47;39.90;38.70
19088;DHT22;9676;50.916;13.352;2023-07-13T07:58:39;40.40;38.50
19088;DHT22;9676;50.916;13.352;2023-07-13T08:01:32;41.00;38.30
19088;DHT22;9676;50.916;13.352;2023-07-13T08:04:24;41.60;38.00
19088;DHT22;9676;50.916;13.352;2023-07-13T08:07:16;42.20;37.30
19088;DHT22;9676;50.916;13.352;2023-07-13T08:10:07;42.80;36.60
19088;DHT22;9676;50.916;13.352;2023-07-13T08:12:58;43.50;36.10
19088;DHT22;9676;50.916;13.352;2023-07-13T08:15:50;43.90;35.50
19088;DHT22;9676;50.916;13.352;2023-07-13T08:18:40;44.40;34.80
19088;DHT22;9676;50.916;13.352;2023-07-13T08:21:29;44.70;33.80
19088;DHT22;9676;50.916;13.352;2023-07-13T08:24:22;44.80;32.90
19088;DHT22;9676;50.916;13.352;2023-07-13T08:27:12;44.60;31.90
19088;DHT22;9676;50.916;13.352;2023-07-13T08:30:04;44.40;31.50
19088;DHT22;9676;50.916;13.352;2023-07-13T08:32:56;43.90;30.90
19088;DHT22;9676;50.916;13.352;2023-07-13T08:35:46;43.40;30.80
19088;DHT22;9676;50.916;13.352;2023-07-13T08:38:35;42.90;30.60
19088;DHT22;9676;50.916;13.352;2023-07-13T08:41:25;42.40;30.60
19088;DHT22;9676;50.916;13.352;2023-07-13T08:44:22;41.80;30.60
19088;DHT22;9676;50.916;13.352;2023-07-13T08:47:21;41.30;30.30
19088;DHT22;9676;50.916;13.352;2023-07-13T08:50:15;41.00;31.00
19088;DHT22;9676;50.916;13.352;2023-07-13T08:53:09;41.00;31.80
19088;DHT22;9676;50.916;13.352;2023-07-13T08:56:01;41.10;32.10
19088;DHT22;9676;50.916;13.352;2023-07-13T08:58:56;41.30;32.10
19088;DHT22;9676;50.916;13.352;2023-07-13T09:05:13;41.90;31.50
19088;DHT22;9676;50.916;13.352;2023-07-13T09:08:31;42.10;31.40
19088;DHT22;9676;50.916;13.352;2023-07-13T09:11:45;42.10;30.00
19088;DHT22;9676;50.916;13.352;2023-07-13T09:14:42;41.90;29.70
19088;DHT22;9676;50.916;13.352;2023-07-13T09:17:39;41.70;29.90
19088;DHT22;9676;50.916;13.352;2023-07-13T09:20:33;41.60;30.40
19088;DHT22;9676;50.916;13.352;2023-07-13T09:23:28;41.90;31.20
19088;DHT22;9676;50.916;13.352;2023-07-13T09:26:20;42.30;31.30
19088;DHT22;9676;50.916;13.352;2023-07-13T09:29:14;42.80;31.70
19088;DHT22;9676;50.916;13.352;2023-07-13T09:32:09;43.40;31.30
19088;DHT22;9676;50.916;13.352;2023-07-13T09:35:01;43.90;30.80
19088;DHT22;9676;50.916;13.352;2023-07-13T09:37:51;44.30;30.00
19088;DHT22;9676;50.916;13.352;2023-07-13T09:40:56;44.40;29.30
19088;DHT22;9676;50.916;13.352;2023-07-13T09:44:08;44.40;28.10
19088;DHT22;9676;50.916;13.352;2023-07-13T09:47:00;44.10;27.90
19088;DHT22;9676;50.916;13.352;2023-07-13T09:49:55;43.90;28.80
19088;DHT22;9676;50.916;13.352;2023-07-13T09:52:51;43.90;28.60
19088;DHT22;9676;50.916;13.352;2023-07-13T09:55:44;43.90;28.80
19088;DHT22;9676;50.916;13.352;2023-07-13T09:58:38;44.00;28.90
19088;DHT22;9676;50.916;13.352;2023-07-13T10:01:33;44.20;28.70
19088;DHT22;9676;50.916;13.352;2023-07-13T10:04:29;44.20;27.80
19088;DHT22;9676;50.916;13.352;2023-07-13T10:07:22;44.10;27.40
19088;DHT22;9676;50.916;13.352;2023-07-13T10:10:20;43.80;27.20
19088;DHT22;9676;50.916;13.352;2023-07-13T10:13:25;43.60;27.40
19088;DHT22;9676;50.916;13.352;2023-07-13T10:16:17;43.30;27.00
19088;DHT22;9676;50.916;13.352;2023-07-13T10:19:12;43.10;27.50
19088;DHT22;9676;50.916;13.352;2023-07-13T10:22:13;42.90;27.20
19088;DHT22;9676;50.916;13.352;2023-07-13T10:25:15;42.80;27.20
19088;DHT22;9676;50.916;13.352;2023-07-13T10:28:23;42.70;27.20
19088;DHT22;9676;50.916;13.352;2023-07-13T10:31:16;42.80;27.10
19088;DHT22;9676;50.916;13.352;2023-07-13T10:34:09;42.80;27.80
19088;DHT22;9676;50.916;13.352;2023-07-13T10:37:00;42.70;27.50
19088;DHT22;9676;50.916;13.352;2023-07-13T10:39:52;42.50;27.30
19088;DHT22;9676;50.916;13.352;2023-07-13T10:42:45;42.30;27.10
19088;DHT22;9676;50.916;13.352;2023-07-13T10:45:37;42.00;27.00
19088;DHT22;9676;50.916;13.352;2023-07-13T10:48:27;41.60;27.00
19088;DHT22;9676;50.916;13.352;2023-07-13T10:51:18;41.30;27.10
19088;DHT22;9676;50.916;13.352;2023-07-13T10:54:17;41.10;27.70
19088;DHT22;9676;50.916;13.352;2023-07-13T10:57:20;40.70;27.00
19088;DHT22;9676;50.916;13.352;2023-07-13T11:00:16;40.50;27.00
19088;DHT22;9676;50.916;13.352;2023-07-13T11:03:13;40.20;27.10
19088;DHT22;9676;50.916;13.352;2023-07-13T11:06:08;39.90;27.20
19088;DHT22;9676;50.916;13.352;2023-07-13T11:09:18;39.70;27.30
19088;DHT22;9676;50.916;13.352;2023-07-13T11:15:44;39.50;27.30
19088;DHT22;9676;50.916;13.352;2023-07-13T11:18:38;39.40;27.30
19088;DHT22;9676;50.916;13.352;2023-07-13T11:21:28;39.10;27.20
19088;DHT22;9676;50.916;13.352;2023-07-13T11:24:19;38.90;27.30
19088;DHT22;9676;50.916;13.352;2023-07-13T11:27:30;38.60;27.20
19088;DHT22;9676;50.916;13.352;2023-07-13T11:30:32;38.50;27.20
19088;DHT22;9676;50.916;13.352;2023-07-13T11:33:27;38.30;27.20
19088;DHT22;9676;50.916;13.352;2023-07-13T11:36:21;38.00;27.20
19088;DHT22;9676;50.916;13.352;2023-07-13T11:39:18;37.70;27.10
19088;DHT22;9676;50.916;13.352;2023-07-13T11:42:12;37.50;27.10
19088;DHT22;9676;50.916;13.352;2023-07-13T11:45:19;37.20;27.60
19088;DHT22;9676;50.916;13.352;2023-07-13T11:48:28;37.00;27.10
19088;DHT22;9676;50.916;13.352;2023-07-13T11:51:22;36.60;27.30
19088;DHT22;9676;50.916;13.352;2023-07-13T11:54:24;36.30;27.40
19088;DHT22;9676;50.916;13.352;2023-07-13T11:57:25;36.10;27.40
19088;DHT22;9676;50.916;13.352;2023-07-13T12:00:18;35.80;27.50
19088;DHT22;9676;50.916;13.352;2023-07-13T12:03:11;35.60;27.50
19088;DHT22;9676;50.916;13.352;2023-07-13T12:06:05;35.50;27.60
19088;DHT22;9676;50.916;13.352;2023-07-13T12:09:01;35.40;27.80
19088;DHT22;9676;50.916;13.352;2023-07-13T12:12:00;35.40;28.00
19088;DHT22;9676;50.916;13.352;2023-07-13T12:14:51;35.40;28.20
19088;DHT22;9676;50.916;13.352;2023-07-13T12:17:42;35.30;28.10
19088;DHT22;9676;50.916;13.352;2023-07-13T12:20:37;35.20;28.10
19088;DHT22;9676;50.916;13.352;2023-07-13T12:23:29;35.20;28.30
19088;DHT22;9676;50.916;13.352;2023-07-13T12:26:22;35.20;28.30
19088;DHT22;9676;50.916;13.352;2023-07-13T12:29:16;35.10;28.20
19088;DHT22;9676;50.916;13.352;2023-07-13T12:32:08;35.00;28.10
19088;DHT22;9676;50.916;13.352;2023-07-13T12:35:13;34.90;28.20
19088;DHT22;9676;50.916;13.352;2023-07-13T12:38:07;34.80;28.20
19088;DHT22;9676;50.916;13.352;2023-07-13T12:40:58;34.60;28.20
19088;DHT22;9676;50.916;13.352;2023-07-13T12:43:49;34.50;28.20
19088;DHT22;9676;50.916;13.352;2023-07-13T12:46:39;34.40;28.30
19088;DHT22;9676;50.916;13.352;2023-07-13T12:49:32;34.30;28.40
19088;DHT22;9676;50.916;13.352;2023-07-13T12:52:27;34.30;28.60
19088;DHT22;9676;50.916;13.352;2023-07-13T12:55:19;34.30;28.60
19088;DHT22;9676;50.916;13.352;2023-07-13T12:58:17;34.30;28.70
19088;DHT22;9676;50.916;13.352;2023-07-13T13:01:11;34.40;28.70
19088;DHT22;9676;50.916;13.352;2023-07-13T13:04:03;34.30;28.60
19088;DHT22;9676;50.916;13.352;2023-07-13T13:07:05;34.30;28.60
19088;DHT22;9676;50.916;13.352;2023-07-13T13:09:58;34.40;28.50
19088;DHT22;9676;50.916;13.352;2023-07-13T13:12:47;34.30;28.50
19088;DHT22;9676;50.916;13.352;2023-07-13T13:15:36;34.30;28.50
19088;DHT22;9676;50.916;13.352;2023-07-13T13:18:27;34.30;28.50
19088;DHT22;9676;50.916;13.352;2023-07-13T13:21:17;34.30;28.50
19088;DHT22;9676;50.916;13.352;2023-07-13T13:24:11;34.30;28.60
19088;DHT22;9676;50.916;13.352;2023-07-13T13:27:01;34.20;28.40
19088;DHT22;9676;50.916;13.352;2023-07-13T13:29:51;34.20;28.40
19088;DHT22;9676;50.916;13.352;2023-07-13T13:32:41;34.10;28.40
19088;DHT22;9676;50.916;13.352;2023-07-13T13:35:32;34.10;28.50
19088;DHT22;9676;50.916;13.352;2023-07-13T13:38:25;34.10;28.50
19088;DHT22;9676;50.916;13.352;2023-07-13T13:41:16;34.10;28.70
19088;DHT22;9676;50.916;13.352;2023-07-13T13:44:09;34.10;28.70
19088;DHT22;9676;50.916;13.352;2023-07-13T13:46:58;34.10;28.70
19088;DHT22;9676;50.916;13.352;2023-07-13T13:49:47;34.10;28.70
19088;DHT22;9676;50.916;13.352;2023-07-13T13:52:38;34.20;28.70
19088;DHT22;9676;50.916;13.352;2023-07-13T13:55:28;34.20;28.60
19088;DHT22;9676;50.916;13.352;2023-07-13T13:58:17;34.10;28.60
19088;DHT22;9676;50.916;13.352;2023-07-13T14:01:13;34.10;28.50
19088;DHT22;9676;50.916;13.352;2023-07-13T14:04:05;34.00;28.50
19088;DHT22;9676;50.916;13.352;2023-07-13T14:06:55;33.90;28.60
19088;DHT22;9676;50.916;13.352;2023-07-13T14:09:46;33.70;28.50
19088;DHT22;9676;50.916;13.352;2023-07-13T14:12:36;33.70;28.70
19088;DHT22;9676;50.916;13.352;2023-07-13T14:15:27;33.60;28.70
19088;DHT22;9676;50.916;13.352;2023-07-13T14:18:18;33.60;28.80
19088;DHT22;9676;50.916;13.352;2023-07-13T14:21:13;33.60;28.80
19088;DHT22;9676;50.916;13.352;2023-07-13T14:24:02;33.50;28.90
19088;DHT22;9676;50.916;13.352;2023-07-13T14:26:54;33.50;28.90
19088;DHT22;9676;50.916;13.352;2023-07-13T14:29:43;33.50;28.90
19088;DHT22;9676;50.916;13.352;2023-07-13T14:32:33;33.50;28.80
19088;DHT22;9676;50.916;13.352;2023-07-13T14:35:22;33.40;28.80
19088;DHT22;9676;50.916;13.352;2023-07-13T14:38:15;33.40;28.80
19088;DHT22;9676;50.916;13.352;2023-07-13T14:41:08;33.30;28.70
19088;DHT22;9676;50.916;13.352;2023-07-13T14:43:59;33.30;28.70
19088;DHT22;9676;50.916;13.352;2023-07-13T14:46:49;33.20;28.70
19088;DHT22;9676;50.916;13.352;2023-07-13T14:49:41;33.20;28.80
19088;DHT22;9676;50.916;13.352;2023-07-13T14:52:32;33.10;28.70
19088;DHT22;9676;50.916;13.352;2023-07-13T14:55:21;33.00;28.70
19088;DHT22;9676;50.916;13.352;2023-07-13T14:58:14;33.00;28.70
19088;DHT22;9676;50.916;13.352;2023-07-13T15:01:05;32.90;28.60
19088;DHT22;9676;50.916;13.352;2023-07-13T15:03:54;32.80;28.60
19088;DHT22;9676;50.916;13.352;2023-07-13T15:06:58;32.70;28.50
19088;DHT22;9676;50.916;13.352;2023-07-13T15:09:50;32.70;28.50
19088;DHT22;9676;50.916;13.352;2023-07-13T15:12:40;32.50;28.50
19088;DHT22;9676;50.916;13.352;2023-07-13T15:15:31;32.40;28.50
19088;DHT22;9676;50.916;13.352;2023-07-13T15:18:25;32.30;29.10
19088;DHT22;9676;50.916;13.352;2023-07-13T15:21:20;32.20;28.60
19088;DHT22;9676;50.916;13.352;2023-07-13T15:24:11;32.10;28.60
19088;DHT22;9676;50.916;13.352;2023-07-13T15:27:00;32.00;28.50
19088;DHT22;9676;50.916;13.352;2023-07-13T15:29:50;31.90;28.50
19088;DHT22;9676;50.916;13.352;2023-07-13T15:32:39;31.80;28.40
19088;DHT22;9676;50.916;13.352;2023-07-13T15:35:33;31.70;28.90
19088;DHT22;9676;50.916;13.352;2023-07-13T15:38:23;31.70;28.60
19088;DHT22;9676;50.916;13.352;2023-07-13T15:41:17;31.60;28.50
19088;DHT22;9676;50.916;13.352;2023-07-13T15:44:24;31.60;28.50
19088;DHT22;9676;50.916;13.352;2023-07-13T15:47:15;31.50;28.30
19088;DHT22;9676;50.916;13.352;2023-07-13T15:50:12;31.40;28.40
19088;DHT22;9676;50.916;13.352;2023-07-13T15:53:04;31.40;28.50
19088;DHT22;9676;50.916;13.352;2023-07-13T15:55:53;31.40;28.50
19088;DHT22;9676;50.916;13.352;2023-07-13T15:58:43;31.40;28.60
19088;DHT22;9676;50.916;13.352;2023-07-13T16:01:32;31.40;28.50
19088;DHT22;9676;50.916;13.352;2023-07-13T16:04:22;31.40;28.50
19088;DHT22;9676;50.916;13.352;2023-07-13T16:07:13;31.40;28.40
19088;DHT22;9676;50.916;13.352;2023-07-13T16:10:08;31.30;28.40
19088;DHT22;9676;50.916;13.352;2023-07-13T16:13:03;31.30;28.30
19088;DHT22;9676;50.916;13.352;2023-07-13T16:15:54;31.20;28.20
19088;DHT22;9676;50.916;13.352;2023-07-13T16:18:44;31.20;28.30
19088;DHT22;9676;50.916;13.352;2023-07-13T16:21:36;31.10;28.20
19088;DHT22;9676;50.916;13.352;2023-07-13T16:24:32;31.00;28.20
19088;DHT22;9676;50.916;13.352;2023-07-13T16:27:23;30.90;28.20
19088;DHT22;9676;50.916;13.352;2023-07-13T16:30:15;30.80;28.20
19088;DHT22;9676;50.916;13.352;2023-07-13T16:33:09;30.70;28.30
19088;DHT22;9676;50.916;13.352;2023-07-13T16:35:59;30.60;28.30
19088;DHT22;9676;50.916;13.352;2023-07-13T16:38:49;30.50;28.30
19088;DHT22;9676;50.916;13.352;2023-07-13T16:41:39;30.40;28.30
19088;DHT22;9676;50.916;13.352;2023-07-13T16:44:32;30.30;28.40
19088;DHT22;9676;50.916;13.352;2023-07-13T16:47:22;30.20;28.50
19088;DHT22;9676;50.916;13.352;2023-07-13T16:50:17;30.20;28.50
19088;DHT22;9676;50.916;13.352;2023-07-13T16:53:15;30.10;28.60
19088;DHT22;9676;50.916;13.352;2023-07-13T16:56:14;30.10;28.70
19088;DHT22;9676;50.916;13.352;2023-07-13T16:59:11;30.00;28.60
19088;DHT22;9676;50.916;13.352;2023-07-13T17:02:31;30.00;28.80
19088;DHT22;9676;50.916;13.352;2023-07-13T17:05:23;30.10;28.90
19088;DHT22;9676;50.916;13.352;2023-07-13T17:08:15;30.00;28.80
19088;DHT22;9676;50.916;13.352;2023-07-13T17:11:08;30.00;28.90
19088;DHT22;9676;50.916;13.352;2023-07-13T17:13:58;30.00;28.90
19088;DHT22;9676;50.916;13.352;2023-07-13T17:16:48;30.00;28.90
19088;DHT22;9676;50.916;13.352;2023-07-13T17:19:40;30.00;28.90
19088;DHT22;9676;50.916;13.352;2023-07-13T17:22:29;30.00;28.80
19088;DHT22;9676;50.916;13.352;2023-07-13T17:25:20;30.00;28.80
19088;DHT22;9676;50.916;13.352;2023-07-13T17:28:12;30.00;28.80
19088;DHT22;9676;50.916;13.352;2023-07-13T17:31:05;30.00;28.80
19088;DHT22;9676;50.916;13.352;2023-07-13T17:33:56;30.00;28.80
19088;DHT22;9676;50.916;13.352;2023-07-13T17:36:47;30.00;28.70
19088;DHT22;9676;50.916;13.352;2023-07-13T17:39:36;30.00;28.60
19088;DHT22;9676;50.916;13.352;2023-07-13T17:42:26;29.80;28.50
19088;DHT22;9676;50.916;13.352;2023-07-13T17:45:16;29.80;28.50
19088;DHT22;9676;50.916;13.352;2023-07-13T17:48:10;29.70;28.50
19088;DHT22;9676;50.916;13.352;2023-07-13T17:51:00;29.70;28.50
19088;DHT22;9676;50.916;13.352;2023-07-13T17:53:51;29.50;28.40
19088;DHT22;9676;50.916;13.352;2023-07-13T17:56:41;29.40;28.50
19088;DHT22;9676;50.916;13.352;2023-07-13T17:59:30;29.20;28.40
19088;DHT22;9676;50.916;13.352;2023-07-13T18:02:21;29.10;28.40
19088;DHT22;9676;50.916;13.352;2023-07-13T18:05:12;28.90;28.40
19088;DHT22;9676;50.916;13.352;2023-07-13T18:08:02;28.80;28.50
19088;DHT22;9676;50.916;13.352;2023-07-13T18:10:55;28.70;28.50
19088;DHT22;9676;50.916;13.352;2023-07-13T18:13:45;28.60;28.50
19088;DHT22;9676;50.916;13.352;2023-07-13T18:16:35;28.40;28.50
19088;DHT22;9676;50.916;13.352;2023-07-13T18:19:33;28.30;28.60